Latest Weather Observations for Hopetoun North

IDW60801

Issued at 9:33 am WST Friday 23 June 2017 (issued every 30 minutes, with the page automatically refreshed every 10 minutes)

About weather observations | Map of weather stations | Latest weather observations for WA | Other Formats
Station Details ID: 009961 Name: HOPETOUN NORTH Lat: -33.93 Lon: 120.13 Height: 26.0 m
Data from the previous 72 hours. | See also: Recent months at Hopetoun North
Date/Time
WST
Temp
°C
App
Temp
°C
Dew
Point
°C
Rel
Hum
%
Delta-T
°C
Wind Press
QNH
hPa
Press
MSL
hPa
Rain since
9am
mm
Dir  Spd
km/h
Gust
km/h
Spd
kts
Gust
kts
23/09:30am 15.1 11.8 15.1 100 0.0 SE 26 35 14 19 1022.7 1022.7 0.0
23/09:00am 15.1 12.6 15.1 100 0.0 SE 22 33 12 18 1022.4 1022.4 15.0
23/08:30am 14.9 12.3 14.9 100 0.0 SE 22 32 12 17 1021.9 1021.9 15.0
23/08:00am 14.2 11.0 14.2 100 0.0 SE 24 43 13 23 1021.5 1021.5 14.0
23/07:30am 14.3 12.4 14.3 100 0.0 ESE 17 28 9 15 1021.3 1021.3 10.4
23/07:00am 13.1 11.2 13.1 100 0.0 NE 15 28 8 15 1020.9 1020.9 10.4
23/06:30am 12.9 12.7 12.9 100 0.0 NNE 6 9 3 5 1020.4 1020.4 8.4
23/06:00am 12.5 11.6 12.5 100 0.0 SW 9 17 5 9 1020.1 1020.1 5.2
23/05:30am 10.7 10.2 10.7 100 0.0 NW 4 6 2 3 1019.9 1019.9 1.6
23/05:00am 11.1 10.7 11.1 100 0.0 N 4 6 2 3 1019.2 1019.2 1.4
23/04:30am 11.7 12.2 11.7 100 0.0 CALM 0 0 0 0 1019.2 1019.2 1.4
23/04:00am 12.0 12.6 12.0 100 0.0 CALM 0 0 0 0 1019.0 1019.0 1.4
23/03:30am 11.9 12.5 11.9 100 0.0 CALM 0 0 0 0 1018.9 1018.9 1.2
23/03:00am 10.8 9.9 10.8 100 0.0 NNW 6 6 3 3 1018.8 1018.8 0.2
23/02:30am 11.0 11.3 11.0 100 0.0 CALM 0 0 0 0 1018.4 1018.4 0.2
23/02:00am 11.8 11.2 11.8 100 0.0 N 6 7 3 4 1018.5 1018.5 0.2
23/01:30am 10.9 10.4 10.9 100 0.0 N 4 6 2 3 1018.2 1018.2 0.2
23/01:00am 10.3 9.1 10.3 100 0.0 NE 7 9 4 5 1018.1 1018.1 0.2
23/12:30am 10.2 9.5 10.2 100 0.0 NNE 4 7 2 4 1018.1 1018.1 0.2
23/12:00am 12.0 12.2 12.0 100 0.0 NNE 2 4 1 2 1018.1 1018.1 0.2
 
Date/Time
WST
Temp
°C
App
Temp
°C
Dew
Point
°C
Rel
Hum
%
Delta-T
°C
Wind Press
QNH
hPa
Press
MSL
hPa
Rain since
9am
mm
Dir  Spd
km/h
Gust
km/h
Spd
kts
Gust
kts
22/11:30pm 10.9 10.4 10.9 100 0.0 NE 4 6 2 3 1018.1 1018.1 0.2
22/11:00pm 11.8 12.0 11.8 100 0.0 N 2 6 1 3 1018.2 1018.2 0.2
22/10:30pm 11.3 11.7 11.3 100 0.0 CALM 0 0 0 0 1018.0 1018.0 0.2
22/10:00pm 10.9 10.1 10.9 100 0.0 N 6 7 3 4 1017.9 1017.9 0.2
22/09:30pm 11.2 10.4 11.2 100 0.0 N 6 7 3 4 1017.8 1017.8 0.2
22/09:00pm 12.7 11.8 12.5 99 0.1 E 9 13 5 7 1017.6 1017.5 0.2
22/08:30pm 11.8 11.2 11.6 99 0.1 NE 6 7 3 4 1017.3 1017.2 0.2
22/08:00pm 12.3 11.6 12.0 98 0.2 NE 7 9 4 5 1017.2 1017.1 0.2
22/07:30pm 13.1 12.3 11.7 91 0.7 NE 7 9 4 5 1016.9 1016.8 0.2
22/07:00pm 14.9 13.9 12.2 84 1.5 ESE 9 13 5 7 1016.5 1016.4 0.2
22/06:30pm 14.9 13.5 12.2 84 1.5 SE 11 15 6 8 1016.0 1015.9 0.2
22/06:00pm 15.1 14.2 12.6 85 1.4 ESE 9 13 5 7 1015.6 1015.5 0.2
22/05:30pm 14.8 13.7 11.8 82 1.6 ESE 9 13 5 7 1015.2 1015.2 0.2
22/05:00pm 15.3 14.2 13.0 86 1.3 ESE 11 17 6 9 1014.9 1014.9 0.2
22/04:30pm 15.5 14.4 13.2 86 1.3 ESE 11 15 6 8 1014.8 1014.8 0.2
22/04:00pm 16.2 15.4 13.9 86 1.3 ESE 11 17 6 9 1014.6 1014.6 0.2
22/03:30pm 17.0 15.8 13.9 82 1.8 ESE 13 19 7 10 1014.1 1014.1 0.2
22/03:00pm 18.3 16.6 13.6 74 2.7 ESE 15 22 8 12 1013.7 1013.7 0.2
22/02:30pm 18.4 16.7 13.7 74 2.7 ESE 15 22 8 12 1013.4 1013.4 0.2
22/02:00pm 18.4 16.6 13.3 72 2.9 ESE 15 26 8 14 1013.4 1013.4 0.2
22/01:30pm 19.2 17.6 14.0 72 3.0 ENE 15 22 8 12 1013.4 1013.4 0.2
22/01:00pm 19.2 18.3 13.6 70 3.2 ENE 11 19 6 10 1013.6 1013.6 0.2
22/12:30pm 18.7 17.4 13.8 73 2.8 ENE 13 20 7 11 1013.8 1013.8 0.2
22/12:00pm 18.6 18.0 14.5 77 2.4 NNE 11 15 6 8 1014.4 1014.4 0.0
22/11:30am 17.9 17.1 14.0 78 2.2 NE 11 19 6 10 1014.7 1014.7 0.0
22/11:00am 16.8 15.3 14.1 84 1.5 NE 15 20 8 11 1014.8 1014.8 0.0
22/10:30am 14.9 15.1 14.7 99 0.1 NNE 7 13 4 7 1015.2 1015.2 0.0
22/10:00am 14.1 14.3 14.1 100 0.0 NE 6 9 3 5 1015.6 1015.5 0.0
22/09:30am 13.4 13.7 13.4 100 0.0 ENE 4 7 2 4 1015.6 1015.5 0.0
22/09:00am 12.8 12.3 12.8 100 0.0 NE 7 9 4 5 1015.3 1015.3 5.6
22/08:30am 12.2 12.1 12.2 100 0.0 NE 4 6 2 3 1015.5 1015.4 5.6
22/08:00am 11.9 11.2 11.9 100 0.0 NE 7 9 4 5 1015.2 1015.2 5.6
22/07:30am 11.9 10.4 11.9 100 0.0 NE 11 15 6 8 1014.9 1014.9 5.6
22/07:00am 12.0 10.9 12.0 100 0.0 NE 9 13 5 7 1015.0 1015.0 5.6
22/06:30am 12.4 11.1 12.4 100 0.0 ENE 11 13 6 7 1014.5 1014.5 5.6
22/06:00am 12.8 12.3 12.8 100 0.0 NNE 7 15 4 8 1014.5 1014.5 5.6
22/05:30am 12.8 12.9 12.8 100 0.0 NW 4 7 2 4 1014.4 1014.4 5.6
22/05:00am 12.9 11.7 12.9 100 0.0 W 11 26 6 14 1014.0 1014.0 5.6
22/04:30am 13.1 11.2 13.1 100 0.0 ENE 15 22 8 12 1014.0 1014.0 5.6
22/04:00am 13.8 12.5 13.8 100 0.0 ENE 13 17 7 9 1013.7 1013.7 5.6
22/03:30am 14.1 12.6 14.1 100 0.0 ESE 15 22 8 12 1013.4 1013.4 5.2
22/03:00am 13.2 11.7 13.2 100 0.0 E 13 17 7 9 1013.8 1013.8 4.8
22/02:30am 13.0 11.9 13.0 100 0.0 ESE 11 15 6 8 1014.1 1014.1 4.6
22/02:00am 13.1 12.4 13.1 100 0.0 E 9 11 5 6 1014.5 1014.5 4.2
22/01:30am 13.3 12.3 13.3 100 0.0 NNE 11 17 6 9 1015.6 1015.5 2.8
22/01:00am 13.6 13.0 13.6 100 0.0 N 9 13 5 7 1015.5 1015.4 1.6
22/12:30am 13.3 11.4 13.1 99 0.1 N 15 20 8 11 1015.2 1015.2 1.0
22/12:00am 13.6 13.5 13.4 99 0.1 NE 6 13 3 7 1014.8 1014.8 0.8
 
Date/Time
WST
Temp
°C
App
Temp
°C
Dew
Point
°C
Rel
Hum
%
Delta-T
°C
Wind Press
QNH
hPa
Press
MSL
hPa
Rain since
9am
mm
Dir  Spd
km/h
Gust
km/h
Spd
kts
Gust
kts
21/11:30pm 15.8 15.7 13.8 88 1.1 ESE 7 11 4 6 1014.1 1014.1 0.6
21/11:00pm 15.5 14.5 14.5 94 0.6 SSE 13 13 7 7 1013.8 1013.8 0.6
21/10:30pm 14.9 14.8 13.4 91 0.8 SSW 6 6 3 3 1014.0 1014.0 0.6
21/10:00pm 14.5 13.9 12.2 86 1.2 SSW 7 7 4 4 1014.3 1014.3 0.6
21/09:30pm 15.2 14.4 11.8 80 1.8 NW 7 13 4 7 1015.2 1015.2 0.6
21/09:00pm 16.1 14.8 11.3 73 2.6 NNW 9 15 5 8 1015.7 1015.6 0.0
21/08:30pm 18.3 15.1 8.6 53 5.0 NW 15 28 8 15 1015.3 1015.3 0.0
21/08:00pm 16.9 15.1 8.1 56 4.5 NNW 7 15 4 8 1014.5 1014.5 0.0
21/07:30pm 15.5 14.2 9.2 66 3.2 NW 6 9 3 5 1014.1 1014.1 0.0
21/07:00pm 15.8 13.4 9.9 68 3.1 NE 13 15 7 8 1013.5 1013.5 0.0
21/06:30pm 16.4 15.4 12.4 77 2.2 NE 9 11 5 6 1013.2 1013.2 0.0
21/06:00pm 17.1 15.9 14.0 82 1.8 ENE 13 17 7 9 1013.0 1013.0 0.0
21/05:30pm 17.4 16.4 13.3 77 2.3 ENE 11 17 6 9 1013.0 1013.0 0.0
21/05:00pm 17.8 17.0 15.1 84 1.6 E 13 22 7 12 1013.3 1013.3 0.0
21/04:30pm 18.5 17.2 15.9 85 1.5 ESE 17 26 9 14 1013.0 1013.0 0.0
21/04:00pm 19.1 17.4 14.6 75 2.6 ESE 17 24 9 13 1013.3 1013.3 0.0
21/03:30pm 20.7 19.6 11.9 57 4.9 S 9 13 5 7 1013.4 1013.4 0.0
21/03:00pm 21.8 21.0 10.9 50 6.0 WSW 6 9 3 5 1013.6 1013.6 0.0
21/02:30pm 22.3 19.8 9.8 45 6.8 WSW 13 20 7 11 1013.7 1013.7 0.0
21/02:00pm 22.4 21.2 10.2 46 6.7 WNW 7 20 4 11 1013.9 1013.9 0.0
21/01:30pm 23.4 19.4 6.7 34 8.6 NE 17 24 9 13 1014.0 1014.0 0.0
21/01:00pm 23.9 19.6 7.1 34 8.7 NE 19 26 10 14 1014.5 1014.5 0.0
21/12:30pm 22.9 20.1 8.6 40 7.6 NE 13 20 7 11 1014.8 1014.8 0.0
21/12:00pm 23.6 21.5 9.6 41 7.6 NE 11 17 6 9 1015.6 1015.5 0.0
21/11:30am 22.0 20.2 9.5 45 6.7 NE 9 13 5 7 1016.3 1016.2 0.0
21/11:00am 20.4 18.3 9.9 51 5.6 NE 11 17 6 9 1016.8 1016.7 0.0
21/10:30am 19.4 17.6 10.9 58 4.6 NE 11 17 6 9 1017.2 1017.1 0.0
21/10:00am 17.4 15.0 10.1 62 3.9 NE 13 17 7 9 1017.6 1017.5 0.0
21/09:30am 16.0 13.9 9.9 67 3.2 NE 11 17 6 9 1018.0 1018.0 0.0
21/09:00am 14.2 12.3 9.2 72 2.5 NNE 9 15 5 8 1018.1 1018.1 0.2
21/08:30am 12.8 10.0 8.7 76 2.1 NE 13 17 7 9 1017.9 1017.9 0.2
21/08:00am 11.6 9.0 7.7 77 1.9 NNE 11 15 6 8 1018.0 1018.0 0.2
21/07:30am 8.8 6.9 7.6 92 0.6 NNE 7 13 4 7 1017.9 1017.9 0.2
21/07:00am 8.8 5.3 7.4 91 0.7 NE 15 19 8 10 1017.5 1017.4 0.2
21/06:30am 9.3 5.5 7.7 90 0.8 NNE 17 22 9 12 1017.4 1017.3 0.2
21/06:00am 9.0 5.3 8.1 94 0.4 NNE 17 22 9 12 1017.4 1017.3 0.2
21/05:30am 7.8 3.7 7.7 99 0.0 NE 19 20 10 11 1017.4 1017.3 0.2
21/05:00am 8.2 4.2 8.1 99 0.0 NE 19 20 10 11 1017.5 1017.4 0.2
21/04:30am 8.3 4.7 8.2 99 0.0 NE 17 19 9 10 1017.8 1017.8 0.2
21/04:00am 8.6 5.0 8.5 99 0.0 NE 17 20 9 11 1018.0 1018.0 0.2
21/03:30am 9.2 5.8 9.1 99 0.0 NE 17 20 9 11 1018.3 1018.3 0.2
21/03:00am 9.8 6.5 9.7 99 0.0 NNE 17 22 9 12 1018.7 1018.7 0.2
21/02:30am 9.8 7.3 9.8 100 0.0 NNE 13 15 7 8 1018.7 1018.7 0.2
21/02:00am 10.3 8.3 10.3 100 0.0 NNE 11 15 6 8 1018.9 1018.9 0.2
21/01:30am 10.7 8.1 10.7 100 0.0 NE 15 20 8 11 1018.9 1018.9 0.2
21/01:00am 10.3 7.6 10.3 100 0.0 NE 15 17 8 9 1019.0 1019.0 0.2
21/12:30am 11.0 8.5 11.0 100 0.0 NE 15 19 8 10 1019.3 1019.3 0.2
21/12:00am 11.3 9.6 11.3 100 0.0 NE 11 13 6 7 1019.8 1019.8 0.0
 
Date/Time
WST
Temp
°C
App
Temp
°C
Dew
Point
°C
Rel
Hum
%
Delta-T
°C
Wind Press
QNH
hPa
Press
MSL
hPa
Rain since
9am
mm
Dir  Spd
km/h
Gust
km/h
Spd
kts
Gust
kts
20/11:30pm 11.9 10.4 11.9 100 0.0 NE 11 15 6 8 1020.1 1020.1 0.0
20/11:00pm 12.4 10.7 12.4 100 0.0 NE 13 17 7 9 1020.4 1020.4 0.0
20/10:30pm 12.9 11.0 12.9 100 0.0 NE 15 19 8 10 1020.3 1020.3 0.0
20/10:00pm 13.6 11.9 13.6 100 0.0 NE 15 22 8 12 1020.3 1020.3 0.0
20/09:30pm 14.1 12.6 14.1 100 0.0 ENE 15 19 8 10 1020.5 1020.5 0.0
20/09:00pm 14.9 12.3 14.9 100 0.0 ENE 22 33 12 18 1020.5 1020.5 0.0
20/08:30pm 15.4 12.6 15.4 100 0.0 ENE 24 37 13 20 1020.4 1020.4 0.0
20/08:00pm 15.7 13.8 15.7 100 0.0 ENE 20 28 11 15 1020.2 1020.2 0.0
20/07:30pm 16.3 14.2 16.1 99 0.1 E 22 35 12 19 1020.2 1020.2 0.0
20/07:00pm 16.5 13.9 16.0 97 0.3 E 24 35 13 19 1020.1 1020.1 0.0
20/06:30pm 16.8 13.6 16.2 96 0.4 E 28 44 15 24 1019.9 1019.9 0.0
20/06:00pm 16.8 13.9 16.0 95 0.5 E 26 39 14 21 1019.8 1019.8 0.0
20/05:30pm 16.8 14.2 15.8 94 0.6 E 24 39 13 21 1019.7 1019.7 0.0
20/05:00pm 16.9 14.2 15.6 92 0.8 E 24 33 13 18 1019.6 1019.6 0.0
20/04:30pm 17.4 15.3 16.1 92 0.8 E 22 35 12 19 1019.6 1019.6 0.0
20/04:00pm 17.8 15.1 16.5 92 0.8 ESE 26 41 14 22 1019.6 1019.6 0.0
20/03:30pm 18.1 15.4 16.6 91 0.9 ESE 26 35 14 19 1019.6 1019.6 0.0
20/03:00pm 18.3 15.8 16.1 87 1.3 E 24 35 13 19 1019.4 1019.4 0.0
20/02:30pm 18.5 15.9 15.9 85 1.5 E 24 35 13 19 1019.4 1019.4 0.0
20/02:00pm 18.6 16.0 16.0 85 1.5 ESE 24 33 13 18 1019.6 1019.6 0.0
20/01:30pm 19.1 17.1 16.5 85 1.6 ESE 22 33 12 18 1019.6 1019.6 0.0
20/01:00pm 18.8 16.6 16.8 88 1.2 ESE 24 32 13 17 1020.0 1020.0 0.0
20/12:30pm 18.9 17.6 16.7 87 1.3 ESE 19 28 10 15 1020.4 1020.4 0.0
20/12:00pm 18.8 17.2 16.4 86 1.4 E 20 30 11 16 1020.8 1020.8 0.0
20/11:30am 19.2 18.3 15.9 81 2.0 E 15 24 8 13 1021.3 1021.3 0.0
20/11:00am 19.0 18.7 15.5 80 2.1 E 11 17 6 9 1021.7 1021.7 0.0
20/10:30am 17.5 17.3 14.6 83 1.7 E 9 15 5 8 1022.0 1022.0 0.0
20/10:00am 16.8 16.5 12.7 77 2.3 NE 6 9 3 5 1022.1 1022.1 0.0

Other Formats:

Comma delimited format used in spreadsheet applications
http://www.bom.gov.au/fwo/IDW60801/IDW60801.95635.axf

JavaScript Object Notation format (JSON) in row-major order
http://www.bom.gov.au/fwo/IDW60801/IDW60801.95635.json